Big Bear Station Historical Data
Daily Summary for January 13, 2017 Units:  English    Metric   Both
Next Day »
Daily Weekly Monthly Yearly Custom

Warning: Division by zero in /home/actonast/www/www/weather/wxbb.php on line 1319
  High: Low: Average:
Temperature: 37.2 °F 27.9 °F 31.3 °F
Dew Point: 32.6 °F 27.2 °F 29.9 °F
Humidity: 99% 82% 95%
Wind Speed: 0.0mph 0.0mph 0mph
Wind Gust: -999.0mph - -
Wind - - North
Pressure: 23.43 in 23.31 in -
Precipitation: 0.08 in    
Historical Graphs
 
 
Tabular Data for January 13, 2017
Time Temperature Dew Point Pressure Wind Wind Speed Wind Gust Humidity Rainfall Rate (Hourly)
00:09 28.2 °F 27.5 °F 23.31 in Calm   -999.0 mph 97% 0 in
00:24 28.2 °F 27.5 °F 23.31 in Calm   -999.0 mph 97% 0 in
00:40 28.4 °F 27.7 °F 23.31 in Calm   -999.0 mph 97% 0 in
00:55 28.6 °F 27.9 °F 23.31 in Calm   -999.0 mph 97% 0 in
01:10 28.9 °F 28.2 °F 23.31 in Calm   -999.0 mph 97% 0 in
01:25 29.1 °F 28.6 °F 23.31 in Calm   -999.0 mph 98% 0 in
01:41 29.1 °F 28.6 °F 23.32 in Calm   -999.0 mph 98% 0 in
01:56 28.9 °F 28.4 °F 23.32 in Calm   -999.0 mph 98% 0 in
02:11 28.8 °F 28.3 °F 23.32 in Calm   -999.0 mph 98% 0 in
02:26 28.6 °F 27.9 °F 23.32 in Calm   -999.0 mph 97% 0 in
02:41 28.4 °F 27.7 °F 23.32 in Calm   -999.0 mph 97% 0 in
02:57 28.2 °F 27.5 °F 23.32 in Calm   -999.0 mph 97% 0 in
03:12 28.0 °F 27.3 °F 23.32 in Calm   -999.0 mph 97% 0 in
03:27 28.0 °F 27.3 °F 23.32 in Calm   -999.0 mph 97% 0 in
03:42 28.0 °F 27.3 °F 23.32 in Calm   -999.0 mph 97% 0 in
03:57 28.0 °F 27.3 °F 23.32 in Calm   -999.0 mph 97% 0 in
04:13 28.0 °F 27.3 °F 23.32 in Calm   -999.0 mph 97% 0 in
04:28 27.9 °F 27.2 °F 23.31 in Calm   -999.0 mph 97% 0 in
12:02 36.1 °F 31.7 °F 23.35 in Calm   -999.0 mph 84% 0 in
12:17 36.7 °F 32.6 °F 23.35 in Calm   -999.0 mph 85% 0 in
12:33 37.2 °F 32.2 °F 23.35 in Calm   -999.0 mph 82% 0 in
12:48 36.0 °F 32.2 °F 23.35 in Calm   -999.0 mph 86% 0 in
13:03 36.0 °F 31.9 °F 23.34 in Calm   -999.0 mph 85% 0 in
13:18 36.9 °F 32.2 °F 23.34 in Calm   -999.0 mph 83% 0 in
13:34 34.9 °F 31.4 °F 23.34 in Calm   -999.0 mph 87% 0 in
13:49 35.1 °F 31.6 °F 23.34 in Calm   -999.0 mph 87% 0 in
14:04 35.1 °F 31.6 °F 23.35 in Calm   -999.0 mph 87% 0 in
14:19 34.3 °F 30.8 °F 23.35 in Calm   -999.0 mph 87% 0 in
14:34 33.8 °F 30.6 °F 23.35 in Calm   -999.0 mph 88% 0 in
14:50 33.4 °F 30.8 °F 23.35 in Calm   -999.0 mph 90% 0 in
15:05 32.5 °F 30.4 °F 23.36 in Calm   -999.0 mph 92% 0 in
15:20 32.2 °F 30.4 °F 23.36 in Calm   -999.0 mph 93% 0 in
15:35 31.6 °F 29.8 °F 23.37 in Calm   -999.0 mph 93% 0 in
15:50 31.5 °F 29.7 °F 23.37 in Calm   -999.0 mph 93% 0 in
16:06 31.8 °F 30.0 °F 23.37 in Calm   -999.0 mph 93% 0 in
16:21 31.6 °F 30.1 °F 23.37 in Calm   -999.0 mph 94% 0 in
16:36 31.8 °F 30.3 °F 23.37 in Calm   -999.0 mph 94% 0 in
16:51 31.8 °F 30.3 °F 23.37 in Calm   -999.0 mph 94% 0 in
17:06 31.5 °F 30.0 °F 23.37 in Calm   -999.0 mph 94% 0 in
17:22 31.3 °F 29.8 °F 23.38 in Calm   -999.0 mph 94% 0 in
17:37 31.1 °F 29.8 °F 23.38 in Calm   -999.0 mph 95% 0 in
17:52 30.9 °F 29.6 °F 23.38 in Calm   -999.0 mph 95% 0 in
18:07 30.9 °F 29.6 °F 23.39 in Calm   -999.0 mph 95% 0 in
18:23 30.7 °F 29.4 °F 23.39 in Calm   -999.0 mph 95% 0 in
18:38 30.6 °F 29.6 °F 23.39 in Calm   -999.0 mph 96% 0 in
18:53 30.6 °F 29.6 °F 23.39 in Calm   -999.0 mph 96% 0 in
19:08 30.6 °F 29.6 °F 23.40 in Calm   -999.0 mph 96% 0 in
19:23 30.4 °F 29.4 °F 23.39 in Calm   -999.0 mph 96% 0 in
19:39 30.4 °F 29.4 °F 23.39 in Calm   -999.0 mph 96% 0 in
20:09 30.4 °F 29.7 °F 23.40 in Calm   -999.0 mph 97% 0 in
20:24 30.6 °F 29.9 °F 23.40 in Calm   -999.0 mph 97% 0 in
20:39 30.7 °F 29.9 °F 23.40 in Calm   -999.0 mph 97% 0 in
20:55 31.1 °F 30.6 °F 23.40 in Calm   -999.0 mph 98% 0 in
21:10 31.3 °F 30.8 °F 23.41 in Calm   -999.0 mph 98% 0 in
21:25 31.5 °F 31.0 °F 23.40 in Calm   -999.0 mph 98% 0 in
21:40 31.6 °F 31.1 °F 23.41 in Calm   -999.0 mph 98% 0 in
21:55 31.8 °F 31.3 °F 23.41 in Calm   -999.0 mph 98% 0 in
22:11 31.8 °F 31.3 °F 23.42 in Calm   -999.0 mph 98% 0 in
22:26 32.0 °F 31.5 °F 23.42 in Calm   -999.0 mph 98% 0 in
22:41 32.0 °F 31.5 °F 23.42 in Calm   -999.0 mph 98% 0 in
22:56 32.0 °F 31.5 °F 23.42 in Calm   -999.0 mph 98% 0 in
23:11 32.0 °F 31.5 °F 23.43 in Calm   -999.0 mph 98% 0 in
23:27 32.0 °F 31.5 °F 23.42 in Calm   -999.0 mph 98% 0 in
23:42 32.0 °F 31.8 °F 23.42 in Calm   -999.0 mph 99% 0 in
23:57 32.0 °F 31.8 °F 23.42 in Calm   -999.0 mph 99% 0 in
Big Bear CA Weather